sensor_id;sensor_type;location;lat;lon;timestamp;P1;durP1;ratioP1;P2;durP2;ratioP2
39680;SDS011;26327;42.550;23.120;2023-06-22T00:00:54;9.05;;;6.85;;
39680;SDS011;26327;42.550;23.120;2023-06-22T00:03:20;10.73;;;7.03;;
39680;SDS011;26327;42.550;23.120;2023-06-22T00:05:47;9.32;;;6.70;;
39680;SDS011;26327;42.550;23.120;2023-06-22T00:08:13;8.27;;;6.82;;
39680;SDS011;26327;42.550;23.120;2023-06-22T00:10:39;8.68;;;6.55;;
39680;SDS011;26327;42.550;23.120;2023-06-22T00:13:06;7.93;;;6.13;;
39680;SDS011;26327;42.550;23.120;2023-06-22T00:15:32;9.35;;;7.00;;
39680;SDS011;26327;42.550;23.120;2023-06-22T00:17:57;9.82;;;7.35;;
39680;SDS011;26327;42.550;23.120;2023-06-22T00:20:23;11.02;;;7.30;;
39680;SDS011;26327;42.550;23.120;2023-06-22T00:22:56;8.73;;;7.18;;
39680;SDS011;26327;42.550;23.120;2023-06-22T00:25:23;7.68;;;6.60;;
39680;SDS011;26327;42.550;23.120;2023-06-22T00:27:49;8.38;;;6.90;;
39680;SDS011;26327;42.550;23.120;2023-06-22T00:30:15;8.85;;;7.45;;
39680;SDS011;26327;42.550;23.120;2023-06-22T00:32:42;10.13;;;7.38;;
39680;SDS011;26327;42.550;23.120;2023-06-22T00:35:08;9.57;;;7.10;;
39680;SDS011;26327;42.550;23.120;2023-06-22T00:37:35;8.88;;;6.72;;
39680;SDS011;26327;42.550;23.120;2023-06-22T00:40:01;9.85;;;7.00;;
39680;SDS011;26327;42.550;23.120;2023-06-22T00:42:27;8.23;;;6.78;;
39680;SDS011;26327;42.550;23.120;2023-06-22T00:44:52;9.65;;;7.40;;
39680;SDS011;26327;42.550;23.120;2023-06-22T00:47:17;9.35;;;7.75;;
39680;SDS011;26327;42.550;23.120;2023-06-22T00:49:44;9.00;;;6.95;;
39680;SDS011;26327;42.550;23.120;2023-06-22T00:52:10;8.57;;;6.97;;
39680;SDS011;26327;42.550;23.120;2023-06-22T00:54:41;8.02;;;6.40;;
39680;SDS011;26327;42.550;23.120;2023-06-22T00:57:11;11.50;;;7.20;;
39680;SDS011;26327;42.550;23.120;2023-06-22T00:59:42;10.82;;;7.53;;
39680;SDS011;26327;42.550;23.120;2023-06-22T01:02:07;11.13;;;7.35;;
39680;SDS011;26327;42.550;23.120;2023-06-22T01:04:37;11.57;;;7.60;;
39680;SDS011;26327;42.550;23.120;2023-06-22T01:07:50;8.75;;;7.00;;
39680;SDS011;26327;42.550;23.120;2023-06-22T01:10:14;10.93;;;7.38;;
39680;SDS011;26327;42.550;23.120;2023-06-22T01:12:48;8.77;;;6.95;;
39680;SDS011;26327;42.550;23.120;2023-06-22T01:15:21;10.10;;;7.28;;
39680;SDS011;26327;42.550;23.120;2023-06-22T01:18:02;11.50;;;7.22;;
39680;SDS011;26327;42.550;23.120;2023-06-22T01:20:29;10.02;;;7.07;;
39680;SDS011;26327;42.550;23.120;2023-06-22T01:26:02;8.95;;;6.88;;
39680;SDS011;26327;42.550;23.120;2023-06-22T01:31:16;10.20;;;6.68;;
39680;SDS011;26327;42.550;23.120;2023-06-22T01:33:44;9.35;;;6.97;;
39680;SDS011;26327;42.550;23.120;2023-06-22T01:36:10;9.70;;;7.07;;
39680;SDS011;26327;42.550;23.120;2023-06-22T01:38:38;10.27;;;7.00;;
39680;SDS011;26327;42.550;23.120;2023-06-22T01:41:04;8.38;;;7.15;;
39680;SDS011;26327;42.550;23.120;2023-06-22T01:43:29;9.57;;;7.43;;
39680;SDS011;26327;42.550;23.120;2023-06-22T01:45:56;8.40;;;7.13;;
39680;SDS011;26327;42.550;23.120;2023-06-22T01:48:23;10.48;;;6.97;;
39680;SDS011;26327;42.550;23.120;2023-06-22T01:50:50;11.43;;;6.80;;
39680;SDS011;26327;42.550;23.120;2023-06-22T01:53:17;9.27;;;7.03;;
39680;SDS011;26327;42.550;23.120;2023-06-22T01:55:42;9.23;;;6.90;;
39680;SDS011;26327;42.550;23.120;2023-06-22T01:58:08;9.00;;;6.60;;
39680;SDS011;26327;42.550;23.120;2023-06-22T02:00:34;12.27;;;7.28;;
39680;SDS011;26327;42.550;23.120;2023-06-22T02:03:05;7.83;;;6.10;;
39680;SDS011;26327;42.550;23.120;2023-06-22T02:05:36;9.40;;;6.93;;
39680;SDS011;26327;42.550;23.120;2023-06-22T02:08:08;8.05;;;6.57;;
39680;SDS011;26327;42.550;23.120;2023-06-22T02:10:36;12.30;;;6.85;;
39680;SDS011;26327;42.550;23.120;2023-06-22T02:13:04;10.98;;;7.43;;
39680;SDS011;26327;42.550;23.120;2023-06-22T02:15:31;10.85;;;7.78;;
39680;SDS011;26327;42.550;23.120;2023-06-22T02:17:57;9.90;;;7.20;;
39680;SDS011;26327;42.550;23.120;2023-06-22T02:20:23;11.30;;;7.03;;
39680;SDS011;26327;42.550;23.120;2023-06-22T02:22:49;10.80;;;7.20;;
39680;SDS011;26327;42.550;23.120;2023-06-22T02:25:15;13.73;;;7.95;;
39680;SDS011;26327;42.550;23.120;2023-06-22T02:27:40;9.57;;;7.28;;
39680;SDS011;26327;42.550;23.120;2023-06-22T02:30:07;11.57;;;7.22;;
39680;SDS011;26327;42.550;23.120;2023-06-22T02:32:34;10.98;;;7.38;;
39680;SDS011;26327;42.550;23.120;2023-06-22T02:34:59;9.07;;;7.13;;
39680;SDS011;26327;42.550;23.120;2023-06-22T02:37:25;11.50;;;6.97;;
39680;SDS011;26327;42.550;23.120;2023-06-22T02:39:54;21.98;;;7.88;;
39680;SDS011;26327;42.550;23.120;2023-06-22T02:42:19;12.15;;;7.85;;
39680;SDS011;26327;42.550;23.120;2023-06-22T02:44:46;10.05;;;7.10;;
39680;SDS011;26327;42.550;23.120;2023-06-22T02:47:12;8.70;;;6.40;;
39680;SDS011;26327;42.550;23.120;2023-06-22T02:49:37;11.68;;;7.43;;
39680;SDS011;26327;42.550;23.120;2023-06-22T02:52:03;12.80;;;7.20;;
39680;SDS011;26327;42.550;23.120;2023-06-22T02:54:28;9.52;;;7.00;;
39680;SDS011;26327;42.550;23.120;2023-06-22T02:56:54;11.80;;;7.50;;
39680;SDS011;26327;42.550;23.120;2023-06-22T02:59:19;11.50;;;7.10;;
39680;SDS011;26327;42.550;23.120;2023-06-22T03:01:48;9.82;;;7.20;;
39680;SDS011;26327;42.550;23.120;2023-06-22T03:04:17;9.70;;;7.07;;
39680;SDS011;26327;42.550;23.120;2023-06-22T03:06:43;9.02;;;6.95;;
39680;SDS011;26327;42.550;23.120;2023-06-22T03:09:08;12.07;;;8.02;;
39680;SDS011;26327;42.550;23.120;2023-06-22T03:11:34;12.45;;;8.02;;
39680;SDS011;26327;42.550;23.120;2023-06-22T03:14:00;10.70;;;7.90;;
39680;SDS011;26327;42.550;23.120;2023-06-22T03:16:26;12.48;;;8.45;;
39680;SDS011;26327;42.550;23.120;2023-06-22T03:18:51;10.15;;;7.22;;
39680;SDS011;26327;42.550;23.120;2023-06-22T03:21:18;11.23;;;7.93;;
39680;SDS011;26327;42.550;23.120;2023-06-22T03:23:44;10.43;;;7.68;;
39680;SDS011;26327;42.550;23.120;2023-06-22T03:26:10;10.25;;;7.43;;
39680;SDS011;26327;42.550;23.120;2023-06-22T03:28:35;10.90;;;7.50;;
39680;SDS011;26327;42.550;23.120;2023-06-22T03:31:01;13.30;;;7.97;;
39680;SDS011;26327;42.550;23.120;2023-06-22T03:33:27;15.10;;;7.88;;
39680;SDS011;26327;42.550;23.120;2023-06-22T03:35:53;11.52;;;7.95;;
39680;SDS011;26327;42.550;23.120;2023-06-22T03:38:18;17.88;;;8.43;;
39680;SDS011;26327;42.550;23.120;2023-06-22T03:40:44;10.77;;;8.00;;
39680;SDS011;26327;42.550;23.120;2023-06-22T03:43:09;14.35;;;8.57;;
39680;SDS011;26327;42.550;23.120;2023-06-22T03:45:35;14.05;;;7.57;;
39680;SDS011;26327;42.550;23.120;2023-06-22T03:48:00;10.73;;;8.23;;
39680;SDS011;26327;42.550;23.120;2023-06-22T03:50:26;9.88;;;7.85;;
39680;SDS011;26327;42.550;23.120;2023-06-22T03:52:52;8.68;;;7.50;;
39680;SDS011;26327;42.550;23.120;2023-06-22T03:55:19;10.70;;;8.05;;
39680;SDS011;26327;42.550;23.120;2023-06-22T03:57:45;12.35;;;7.85;;
39680;SDS011;26327;42.550;23.120;2023-06-22T04:00:10;13.63;;;7.65;;
39680;SDS011;26327;42.550;23.120;2023-06-22T04:02:36;12.98;;;8.13;;
39680;SDS011;26327;42.550;23.120;2023-06-22T04:05:02;10.93;;;8.18;;
39680;SDS011;26327;42.550;23.120;2023-06-22T04:07:27;11.73;;;8.52;;
39680;SDS011;26327;42.550;23.120;2023-06-22T04:09:52;11.68;;;8.35;;
39680;SDS011;26327;42.550;23.120;2023-06-22T04:12:18;13.27;;;8.32;;
39680;SDS011;26327;42.550;23.120;2023-06-22T04:14:43;12.88;;;8.60;;
39680;SDS011;26327;42.550;23.120;2023-06-22T04:17:09;16.63;;;8.48;;
39680;SDS011;26327;42.550;23.120;2023-06-22T04:19:34;15.30;;;8.85;;
39680;SDS011;26327;42.550;23.120;2023-06-22T04:21:59;16.48;;;9.55;;
39680;SDS011;26327;42.550;23.120;2023-06-22T04:24:25;15.98;;;10.48;;
39680;SDS011;26327;42.550;23.120;2023-06-22T04:26:50;17.98;;;10.98;;
39680;SDS011;26327;42.550;23.120;2023-06-22T04:29:19;26.27;;;10.43;;
39680;SDS011;26327;42.550;23.120;2023-06-22T04:31:45;19.98;;;10.85;;
39680;SDS011;26327;42.550;23.120;2023-06-22T04:34:15;14.77;;;9.70;;
39680;SDS011;26327;42.550;23.120;2023-06-22T04:36:42;18.67;;;10.30;;
39680;SDS011;26327;42.550;23.120;2023-06-22T04:39:08;14.35;;;9.43;;
39680;SDS011;26327;42.550;23.120;2023-06-22T04:41:43;16.35;;;10.20;;
39680;SDS011;26327;42.550;23.120;2023-06-22T04:46:38;12.85;;;9.75;;
39680;SDS011;26327;42.550;23.120;2023-06-22T04:49:07;13.63;;;10.43;;
39680;SDS011;26327;42.550;23.120;2023-06-22T04:51:41;11.68;;;9.75;;
39680;SDS011;26327;42.550;23.120;2023-06-22T04:54:08;16.13;;;10.02;;
39680;SDS011;26327;42.550;23.120;2023-06-22T04:56:34;13.45;;;10.15;;
39680;SDS011;26327;42.550;23.120;2023-06-22T04:59:00;14.50;;;9.65;;
39680;SDS011;26327;42.550;23.120;2023-06-22T05:01:25;19.83;;;10.50;;
39680;SDS011;26327;42.550;23.120;2023-06-22T05:03:51;16.83;;;10.13;;
39680;SDS011;26327;42.550;23.120;2023-06-22T05:06:21;20.80;;;10.20;;
39680;SDS011;26327;42.550;23.120;2023-06-22T05:08:49;16.48;;;9.80;;
39680;SDS011;26327;42.550;23.120;2023-06-22T05:11:15;15.63;;;9.27;;
39680;SDS011;26327;42.550;23.120;2023-06-22T05:13:40;11.88;;;9.00;;
39680;SDS011;26327;42.550;23.120;2023-06-22T05:16:06;15.45;;;9.80;;
39680;SDS011;26327;42.550;23.120;2023-06-22T05:18:31;18.48;;;10.45;;
39680;SDS011;26327;42.550;23.120;2023-06-22T05:20:57;12.20;;;9.98;;
39680;SDS011;26327;42.550;23.120;2023-06-22T05:23:24;13.80;;;9.25;;
39680;SDS011;26327;42.550;23.120;2023-06-22T05:25:49;12.57;;;10.32;;
39680;SDS011;26327;42.550;23.120;2023-06-22T05:28:15;15.30;;;10.18;;
39680;SDS011;26327;42.550;23.120;2023-06-22T05:30:41;14.48;;;11.10;;
39680;SDS011;26327;42.550;23.120;2023-06-22T05:33:06;13.95;;;11.52;;
39680;SDS011;26327;42.550;23.120;2023-06-22T05:35:32;14.52;;;11.05;;
39680;SDS011;26327;42.550;23.120;2023-06-22T05:37:57;14.55;;;12.52;;
39680;SDS011;26327;42.550;23.120;2023-06-22T05:40:22;14.95;;;11.65;;
39680;SDS011;26327;42.550;23.120;2023-06-22T05:42:48;17.83;;;13.98;;
39680;SDS011;26327;42.550;23.120;2023-06-22T05:45:13;21.23;;;14.60;;
39680;SDS011;26327;42.550;23.120;2023-06-22T05:47:39;15.15;;;13.55;;
39680;SDS011;26327;42.550;23.120;2023-06-22T05:50:04;17.23;;;14.30;;
39680;SDS011;26327;42.550;23.120;2023-06-22T05:52:33;19.15;;;15.73;;
39680;SDS011;26327;42.550;23.120;2023-06-22T05:54:59;18.23;;;15.30;;
39680;SDS011;26327;42.550;23.120;2023-06-22T05:57:24;19.63;;;15.93;;
39680;SDS011;26327;42.550;23.120;2023-06-22T05:59:49;17.77;;;15.88;;
39680;SDS011;26327;42.550;23.120;2023-06-22T06:02:15;18.08;;;16.17;;
39680;SDS011;26327;42.550;23.120;2023-06-22T06:04:40;16.83;;;15.13;;
39680;SDS011;26327;42.550;23.120;2023-06-22T06:07:05;18.50;;;16.27;;
39680;SDS011;26327;42.550;23.120;2023-06-22T06:09:32;20.67;;;16.70;;
39680;SDS011;26327;42.550;23.120;2023-06-22T06:11:57;19.83;;;16.50;;
39680;SDS011;26327;42.550;23.120;2023-06-22T06:14:22;20.67;;;17.08;;
39680;SDS011;26327;42.550;23.120;2023-06-22T06:16:48;18.95;;;16.42;;
39680;SDS011;26327;42.550;23.120;2023-06-22T06:19:14;23.77;;;19.35;;
39680;SDS011;26327;42.550;23.120;2023-06-22T06:21:39;17.65;;;15.88;;
39680;SDS011;26327;42.550;23.120;2023-06-22T06:24:05;19.63;;;15.98;;
39680;SDS011;26327;42.550;23.120;2023-06-22T06:26:30;18.67;;;15.88;;
39680;SDS011;26327;42.550;23.120;2023-06-22T06:28:58;19.85;;;17.33;;
39680;SDS011;26327;42.550;23.120;2023-06-22T06:31:24;21.67;;;16.17;;
39680;SDS011;26327;42.550;23.120;2023-06-22T06:33:52;20.13;;;15.80;;
39680;SDS011;26327;42.550;23.120;2023-06-22T06:36:19;20.92;;;16.65;;
39680;SDS011;26327;42.550;23.120;2023-06-22T06:38:44;20.73;;;17.30;;
39680;SDS011;26327;42.550;23.120;2023-06-22T06:41:11;17.33;;;15.50;;
39680;SDS011;26327;42.550;23.120;2023-06-22T06:43:37;20.83;;;16.27;;
39680;SDS011;26327;42.550;23.120;2023-06-22T06:46:03;18.35;;;16.45;;
39680;SDS011;26327;42.550;23.120;2023-06-22T06:48:28;22.70;;;16.88;;
39680;SDS011;26327;42.550;23.120;2023-06-22T06:50:53;20.08;;;17.75;;
39680;SDS011;26327;42.550;23.120;2023-06-22T06:53:19;26.02;;;18.00;;
39680;SDS011;26327;42.550;23.120;2023-06-22T06:55:44;22.90;;;16.90;;
39680;SDS011;26327;42.550;23.120;2023-06-22T06:58:10;23.05;;;17.40;;
39680;SDS011;26327;42.550;23.120;2023-06-22T07:00:38;20.25;;;16.02;;
39680;SDS011;26327;42.550;23.120;2023-06-22T07:03:04;22.00;;;16.75;;
39680;SDS011;26327;42.550;23.120;2023-06-22T07:05:29;21.20;;;15.93;;
39680;SDS011;26327;42.550;23.120;2023-06-22T07:07:55;28.27;;;18.05;;
39680;SDS011;26327;42.550;23.120;2023-06-22T07:10:20;25.67;;;17.23;;
39680;SDS011;26327;42.550;23.120;2023-06-22T07:12:46;27.00;;;17.73;;
39680;SDS011;26327;42.550;23.120;2023-06-22T07:15:11;23.63;;;15.90;;
39680;SDS011;26327;42.550;23.120;2023-06-22T07:17:37;30.42;;;20.52;;
39680;SDS011;26327;42.550;23.120;2023-06-22T07:20:06;33.05;;;18.17;;
39680;SDS011;26327;42.550;23.120;2023-06-22T07:22:37;24.15;;;16.60;;
39680;SDS011;26327;42.550;23.120;2023-06-22T07:25:06;23.02;;;17.02;;
39680;SDS011;26327;42.550;23.120;2023-06-22T07:27:39;22.10;;;15.52;;
39680;SDS011;26327;42.550;23.120;2023-06-22T07:30:08;27.47;;;18.43;;
39680;SDS011;26327;42.550;23.120;2023-06-22T07:32:34;24.83;;;16.95;;
39680;SDS011;26327;42.550;23.120;2023-06-22T07:34:59;21.05;;;14.45;;
39680;SDS011;26327;42.550;23.120;2023-06-22T07:37:26;27.23;;;15.05;;
39680;SDS011;26327;42.550;23.120;2023-06-22T07:39:53;21.25;;;15.65;;
39680;SDS011;26327;42.550;23.120;2023-06-22T07:42:23;23.00;;;15.07;;
39680;SDS011;26327;42.550;23.120;2023-06-22T07:44:48;27.85;;;14.50;;
39680;SDS011;26327;42.550;23.120;2023-06-22T07:47:16;22.92;;;15.02;;
39680;SDS011;26327;42.550;23.120;2023-06-22T07:49:43;26.63;;;15.10;;
39680;SDS011;26327;42.550;23.120;2023-06-22T07:52:08;20.13;;;12.40;;
39680;SDS011;26327;42.550;23.120;2023-06-22T07:54:34;16.67;;;12.35;;
39680;SDS011;26327;42.550;23.120;2023-06-22T07:56:59;18.70;;;12.18;;
39680;SDS011;26327;42.550;23.120;2023-06-22T07:59:25;14.07;;;11.02;;
39680;SDS011;26327;42.550;23.120;2023-06-22T08:01:50;14.98;;;9.77;;
39680;SDS011;26327;42.550;23.120;2023-06-22T08:04:16;10.52;;;9.43;;
39680;SDS011;26327;42.550;23.120;2023-06-22T08:06:41;13.48;;;10.73;;
39680;SDS011;26327;42.550;23.120;2023-06-22T08:09:07;21.65;;;12.32;;
39680;SDS011;26327;42.550;23.120;2023-06-22T08:11:32;11.10;;;9.90;;
39680;SDS011;26327;42.550;23.120;2023-06-22T08:13:57;13.02;;;10.05;;
39680;SDS011;26327;42.550;23.120;2023-06-22T08:16:23;11.52;;;10.30;;
39680;SDS011;26327;42.550;23.120;2023-06-22T08:18:49;17.90;;;10.48;;
39680;SDS011;26327;42.550;23.120;2023-06-22T08:21:14;13.80;;;11.38;;
39680;SDS011;26327;42.550;23.120;2023-06-22T08:23:39;13.20;;;10.93;;
39680;SDS011;26327;42.550;23.120;2023-06-22T08:26:05;17.90;;;11.15;;
39680;SDS011;26327;42.550;23.120;2023-06-22T08:28:30;15.10;;;10.88;;
39680;SDS011;26327;42.550;23.120;2023-06-22T08:30:56;12.10;;;10.15;;
39680;SDS011;26327;42.550;23.120;2023-06-22T08:33:21;13.07;;;10.50;;
39680;SDS011;26327;42.550;23.120;2023-06-22T08:35:54;13.40;;;10.80;;
39680;SDS011;26327;42.550;23.120;2023-06-22T08:38:20;11.85;;;9.93;;
39680;SDS011;26327;42.550;23.120;2023-06-22T08:40:45;12.63;;;9.55;;
39680;SDS011;26327;42.550;23.120;2023-06-22T08:43:11;12.20;;;10.10;;
39680;SDS011;26327;42.550;23.120;2023-06-22T08:45:36;16.00;;;10.43;;
39680;SDS011;26327;42.550;23.120;2023-06-22T08:48:02;14.95;;;10.00;;
39680;SDS011;26327;42.550;23.120;2023-06-22T08:50:27;12.68;;;10.93;;
39680;SDS011;26327;42.550;23.120;2023-06-22T08:52:53;14.95;;;10.20;;
39680;SDS011;26327;42.550;23.120;2023-06-22T08:55:18;13.50;;;11.52;;
39680;SDS011;26327;42.550;23.120;2023-06-22T08:57:43;15.35;;;10.77;;
39680;SDS011;26327;42.550;23.120;2023-06-22T09:00:09;13.98;;;10.70;;
39680;SDS011;26327;42.550;23.120;2023-06-22T09:02:42;15.57;;;11.07;;
39680;SDS011;26327;42.550;23.120;2023-06-22T09:05:07;14.20;;;11.82;;
39680;SDS011;26327;42.550;23.120;2023-06-22T09:07:33;16.02;;;11.48;;
39680;SDS011;26327;42.550;23.120;2023-06-22T09:09:59;15.73;;;12.10;;
39680;SDS011;26327;42.550;23.120;2023-06-22T09:12:24;17.55;;;11.90;;
39680;SDS011;26327;42.550;23.120;2023-06-22T09:14:52;14.55;;;12.10;;
39680;SDS011;26327;42.550;23.120;2023-06-22T09:17:18;16.90;;;12.07;;
39680;SDS011;26327;42.550;23.120;2023-06-22T09:19:44;18.08;;;13.15;;
39680;SDS011;26327;42.550;23.120;2023-06-22T09:22:09;21.58;;;12.20;;
39680;SDS011;26327;42.550;23.120;2023-06-22T09:24:34;21.05;;;11.75;;
39680;SDS011;26327;42.550;23.120;2023-06-22T09:27:00;15.77;;;11.85;;
39680;SDS011;26327;42.550;23.120;2023-06-22T09:29:25;20.58;;;11.60;;
39680;SDS011;26327;42.550;23.120;2023-06-22T09:31:51;16.13;;;12.60;;
39680;SDS011;26327;42.550;23.120;2023-06-22T09:34:18;16.80;;;11.25;;
39680;SDS011;26327;42.550;23.120;2023-06-22T09:36:45;16.90;;;12.30;;
39680;SDS011;26327;42.550;23.120;2023-06-22T09:39:11;23.33;;;12.50;;
39680;SDS011;26327;42.550;23.120;2023-06-22T09:41:37;17.40;;;11.60;;
39680;SDS011;26327;42.550;23.120;2023-06-22T09:44:02;20.20;;;12.45;;
39680;SDS011;26327;42.550;23.120;2023-06-22T09:46:27;17.17;;;11.90;;
39680;SDS011;26327;42.550;23.120;2023-06-22T09:48:53;17.25;;;11.63;;
39680;SDS011;26327;42.550;23.120;2023-06-22T09:51:19;15.63;;;11.48;;
39680;SDS011;26327;42.550;23.120;2023-06-22T09:53:46;12.50;;;11.00;;
39680;SDS011;26327;42.550;23.120;2023-06-22T09:56:12;15.90;;;11.30;;
39680;SDS011;26327;42.550;23.120;2023-06-22T09:58:40;11.57;;;10.27;;
39680;SDS011;26327;42.550;23.120;2023-06-22T10:01:06;14.13;;;10.90;;
39680;SDS011;26327;42.550;23.120;2023-06-22T10:03:32;12.13;;;10.05;;
39680;SDS011;26327;42.550;23.120;2023-06-22T10:05:57;18.17;;;11.63;;
39680;SDS011;26327;42.550;23.120;2023-06-22T10:08:23;11.88;;;10.65;;
39680;SDS011;26327;42.550;23.120;2023-06-22T10:10:48;14.82;;;11.52;;
39680;SDS011;26327;42.550;23.120;2023-06-22T10:13:13;15.55;;;11.02;;
39680;SDS011;26327;42.550;23.120;2023-06-22T10:15:39;14.27;;;11.85;;
39680;SDS011;26327;42.550;23.120;2023-06-22T10:18:05;18.40;;;11.73;;
39680;SDS011;26327;42.550;23.120;2023-06-22T10:20:31;13.13;;;11.10;;
39680;SDS011;26327;42.550;23.120;2023-06-22T10:22:56;10.55;;;9.43;;
39680;SDS011;26327;42.550;23.120;2023-06-22T10:25:22;10.65;;;8.80;;
39680;SDS011;26327;42.550;23.120;2023-06-22T10:27:47;10.32;;;9.23;;
39680;SDS011;26327;42.550;23.120;2023-06-22T10:30:13;9.65;;;8.65;;
39680;SDS011;26327;42.550;23.120;2023-06-22T10:32:40;10.15;;;9.07;;
39680;SDS011;26327;42.550;23.120;2023-06-22T10:35:06;9.63;;;8.63;;
39680;SDS011;26327;42.550;23.120;2023-06-22T10:37:31;10.23;;;8.85;;
39680;SDS011;26327;42.550;23.120;2023-06-22T10:39:57;10.20;;;9.20;;
39680;SDS011;26327;42.550;23.120;2023-06-22T10:42:22;9.50;;;8.50;;
39680;SDS011;26327;42.550;23.120;2023-06-22T10:44:48;9.32;;;8.02;;
39680;SDS011;26327;42.550;23.120;2023-06-22T10:47:13;11.73;;;8.35;;
39680;SDS011;26327;42.550;23.120;2023-06-22T10:49:39;9.30;;;8.40;;
39680;SDS011;26327;42.550;23.120;2023-06-22T10:52:08;9.43;;;8.25;;
39680;SDS011;26327;42.550;23.120;2023-06-22T10:54:34;10.23;;;8.13;;
39680;SDS011;26327;42.550;23.120;2023-06-22T10:57:02;8.88;;;7.80;;
39680;SDS011;26327;42.550;23.120;2023-06-22T10:59:27;11.73;;;9.25;;
39680;SDS011;26327;42.550;23.120;2023-06-22T11:01:55;9.23;;;8.32;;
39680;SDS011;26327;42.550;23.120;2023-06-22T11:04:21;11.35;;;10.15;;
39680;SDS011;26327;42.550;23.120;2023-06-22T11:06:47;10.30;;;8.68;;
39680;SDS011;26327;42.550;23.120;2023-06-22T11:09:13;8.77;;;7.60;;
39680;SDS011;26327;42.550;23.120;2023-06-22T11:11:43;12.23;;;8.43;;
39680;SDS011;26327;42.550;23.120;2023-06-22T11:14:09;9.40;;;7.90;;
39680;SDS011;26327;42.550;23.120;2023-06-22T11:16:34;9.73;;;8.70;;
39680;SDS011;26327;42.550;23.120;2023-06-22T11:19:00;12.52;;;8.88;;
39680;SDS011;26327;42.550;23.120;2023-06-22T11:21:25;10.65;;;8.88;;
39680;SDS011;26327;42.550;23.120;2023-06-22T11:23:50;9.32;;;8.20;;
39680;SDS011;26327;42.550;23.120;2023-06-22T11:26:16;8.82;;;7.93;;
39680;SDS011;26327;42.550;23.120;2023-06-22T11:28:41;9.38;;;7.80;;
39680;SDS011;26327;42.550;23.120;2023-06-22T11:31:06;8.68;;;7.78;;
39680;SDS011;26327;42.550;23.120;2023-06-22T11:33:32;10.07;;;8.35;;
39680;SDS011;26327;42.550;23.120;2023-06-22T11:35:58;9.50;;;7.90;;
39680;SDS011;26327;42.550;23.120;2023-06-22T11:38:23;10.30;;;8.27;;
39680;SDS011;26327;42.550;23.120;2023-06-22T11:40:48;9.65;;;8.25;;
39680;SDS011;26327;42.550;23.120;2023-06-22T11:43:14;9.82;;;7.82;;
39680;SDS011;26327;42.550;23.120;2023-06-22T11:45:40;9.38;;;8.38;;
39680;SDS011;26327;42.550;23.120;2023-06-22T11:48:05;9.20;;;7.60;;
39680;SDS011;26327;42.550;23.120;2023-06-22T11:50:30;9.55;;;8.55;;
39680;SDS011;26327;42.550;23.120;2023-06-22T11:53:00;8.73;;;7.82;;
39680;SDS011;26327;42.550;23.120;2023-06-22T11:55:26;8.13;;;7.03;;
39680;SDS011;26327;42.550;23.120;2023-06-22T11:57:55;9.80;;;7.45;;
39680;SDS011;26327;42.550;23.120;2023-06-22T12:00:23;10.65;;;7.93;;
39680;SDS011;26327;42.550;23.120;2023-06-22T12:02:52;9.55;;;7.57;;
39680;SDS011;26327;42.550;23.120;2023-06-22T12:05:18;10.50;;;8.13;;
39680;SDS011;26327;42.550;23.120;2023-06-22T12:07:45;10.88;;;7.43;;
39680;SDS011;26327;42.550;23.120;2023-06-22T12:10:11;9.95;;;7.82;;
39680;SDS011;26327;42.550;23.120;2023-06-22T12:12:36;10.63;;;8.63;;
39680;SDS011;26327;42.550;23.120;2023-06-22T12:15:02;8.30;;;7.47;;
39680;SDS011;26327;42.550;23.120;2023-06-22T12:17:29;12.90;;;7.45;;
39680;SDS011;26327;42.550;23.120;2023-06-22T12:19:55;9.15;;;7.68;;
39680;SDS011;26327;42.550;23.120;2023-06-22T12:22:20;9.60;;;7.50;;
39680;SDS011;26327;42.550;23.120;2023-06-22T12:24:46;8.48;;;7.68;;
39680;SDS011;26327;42.550;23.120;2023-06-22T12:27:11;9.23;;;7.97;;
39680;SDS011;26327;42.550;23.120;2023-06-22T12:29:37;9.38;;;7.20;;
39680;SDS011;26327;42.550;23.120;2023-06-22T12:32:02;8.02;;;6.82;;
39680;SDS011;26327;42.550;23.120;2023-06-22T12:34:28;7.93;;;6.97;;
39680;SDS011;26327;42.550;23.120;2023-06-22T12:36:53;9.00;;;7.13;;
39680;SDS011;26327;42.550;23.120;2023-06-22T12:39:19;9.07;;;7.00;;
39680;SDS011;26327;42.550;23.120;2023-06-22T12:41:45;12.82;;;7.72;;
39680;SDS011;26327;42.550;23.120;2023-06-22T12:44:10;11.13;;;8.15;;
39680;SDS011;26327;42.550;23.120;2023-06-22T12:46:36;11.77;;;9.65;;
39680;SDS011;26327;42.550;23.120;2023-06-22T12:49:03;15.18;;;9.35;;
39680;SDS011;26327;42.550;23.120;2023-06-22T12:51:29;21.67;;;9.02;;
39680;SDS011;26327;42.550;23.120;2023-06-22T12:53:55;11.68;;;7.47;;
39680;SDS011;26327;42.550;23.120;2023-06-22T12:56:21;12.40;;;7.50;;
39680;SDS011;26327;42.550;23.120;2023-06-22T12:58:46;12.63;;;6.97;;
39680;SDS011;26327;42.550;23.120;2023-06-22T13:01:12;8.60;;;7.15;;
39680;SDS011;26327;42.550;23.120;2023-06-22T13:03:37;11.23;;;7.40;;
39680;SDS011;26327;42.550;23.120;2023-06-22T13:06:02;10.02;;;8.00;;
39680;SDS011;26327;42.550;23.120;2023-06-22T13:08:28;11.90;;;8.68;;
39680;SDS011;26327;42.550;23.120;2023-06-22T13:10:54;12.95;;;9.07;;
39680;SDS011;26327;42.550;23.120;2023-06-22T13:13:23;11.55;;;9.05;;
39680;SDS011;26327;42.550;23.120;2023-06-22T13:15:50;11.43;;;8.43;;
39680;SDS011;26327;42.550;23.120;2023-06-22T13:18:15;13.48;;;7.93;;
39680;SDS011;26327;42.550;23.120;2023-06-22T13:20:41;10.20;;;7.60;;
39680;SDS011;26327;42.550;23.120;2023-06-22T13:23:06;11.57;;;7.95;;
39680;SDS011;26327;42.550;23.120;2023-06-22T13:25:32;9.90;;;7.65;;
39680;SDS011;26327;42.550;23.120;2023-06-22T13:27:58;10.05;;;8.10;;
39680;SDS011;26327;42.550;23.120;2023-06-22T13:30:23;12.68;;;7.85;;
39680;SDS011;26327;42.550;23.120;2023-06-22T13:32:48;11.55;;;7.57;;
39680;SDS011;26327;42.550;23.120;2023-06-22T13:35:14;10.55;;;6.97;;
39680;SDS011;26327;42.550;23.120;2023-06-22T13:37:39;7.70;;;6.25;;
39680;SDS011;26327;42.550;23.120;2023-06-22T13:40:05;10.82;;;7.03;;
39680;SDS011;26327;42.550;23.120;2023-06-22T13:42:32;8.90;;;5.60;;
39680;SDS011;26327;42.550;23.120;2023-06-22T13:44:58;7.65;;;5.80;;
39680;SDS011;26327;42.550;23.120;2023-06-22T13:47:23;13.32;;;6.22;;
39680;SDS011;26327;42.550;23.120;2023-06-22T13:49:49;9.10;;;6.00;;
39680;SDS011;26327;42.550;23.120;2023-06-22T13:52:14;10.73;;;5.93;;
39680;SDS011;26327;42.550;23.120;2023-06-22T13:54:39;7.80;;;5.68;;
39680;SDS011;26327;42.550;23.120;2023-06-22T13:57:05;9.18;;;6.47;;
39680;SDS011;26327;42.550;23.120;2023-06-22T13:59:31;11.95;;;6.25;;
39680;SDS011;26327;42.550;23.120;2023-06-22T14:01:56;10.57;;;6.30;;
39680;SDS011;26327;42.550;23.120;2023-06-22T14:04:25;9.05;;;6.65;;
39680;SDS011;26327;42.550;23.120;2023-06-22T14:06:50;10.82;;;6.78;;
39680;SDS011;26327;42.550;23.120;2023-06-22T14:09:16;9.25;;;6.78;;
39680;SDS011;26327;42.550;23.120;2023-06-22T14:11:41;11.65;;;7.07;;
39680;SDS011;26327;42.550;23.120;2023-06-22T14:14:06;7.25;;;6.40;;
39680;SDS011;26327;42.550;23.120;2023-06-22T14:16:32;11.65;;;6.47;;
39680;SDS011;26327;42.550;23.120;2023-06-22T14:18:57;10.90;;;7.25;;
39680;SDS011;26327;42.550;23.120;2023-06-22T14:21:22;10.85;;;7.68;;
39680;SDS011;26327;42.550;23.120;2023-06-22T14:23:48;10.57;;;7.38;;